Time;durP1;ratioP1;P1;durP2;ratioP2;P2;SDS_P1;SDS_P2;PMS_P1;PMS_P2;Temp;Humidity;BMP_temperature;BMP_pressure;BME280_temperature;BME280_humidity;BME280_pressure;Samples;Min_cycle;Max_cycle;Signal;HPM_P1;HPM_P2
2024/02/23 00:00:53;;;;;;;18.57;10.30;;;;;;;1.77;100.00;100698.88;5034246;28;20040;-68
2024/02/23 00:03:18;;;;;;;15.50;9.13;;;;;;;1.80;100.00;100701.28;5039841;28;20167;-70
2024/02/23 00:05:44;;;;;;;18.33;10.90;;;;;;;1.74;100.00;100685.94;5035241;28;20037;-71
2024/02/23 00:08:09;;;;;;;13.67;9.87;;;;;;;1.74;100.00;100691.19;5033385;28;20508;-68
2024/02/23 00:10:35;;;;;;;15.50;9.50;;;;;;;1.89;100.00;100711.13;5033449;28;20037;-69
2024/02/23 00:13:01;;;;;;;18.37;10.10;;;;;;;1.74;100.00;100681.53;5034505;28;20042;-70
2024/02/23 00:15:27;;;;;;;15.40;9.90;;;;;;;1.93;100.00;100701.22;5034505;28;20859;-68
2024/02/23 00:17:52;;;;;;;17.13;9.43;;;;;;;1.97;100.00;100700.91;5033213;28;20363;-69
2024/02/23 00:20:18;;;;;;;15.87;10.00;;;;;;;1.96;100.00;100695.75;5034645;28;20493;-68
2024/02/23 00:22:44;;;;;;;15.33;9.47;;;;;;;1.86;100.00;100680.66;5034163;28;20075;-70
2024/02/23 00:25:11;;;;;;;17.23;10.50;;;;;;;1.78;100.00;100676.91;5034005;28;20116;-69
2024/02/23 00:27:39;;;;;;;19.90;11.47;;;;;;;1.92;100.00;100692.50;5033598;28;20049;-71
2024/02/23 00:30:05;;;;;;;16.03;10.00;;;;;;;1.98;100.00;100685.97;5034063;28;20268;-69
2024/02/23 00:32:31;;;;;;;15.20;10.33;;;;;;;1.97;100.00;100693.00;5034180;28;20275;-69
2024/02/23 00:34:57;;;;;;;15.43;10.50;;;;;;;1.89;100.00;100681.38;5034240;28;20295;-68
2024/02/23 00:37:23;;;;;;;21.93;11.00;;;;;;;1.85;100.00;100657.97;5034319;28;20503;-68
2024/02/23 00:39:49;;;;;;;16.20;11.23;;;;;;;1.96;100.00;100682.63;5032757;28;20268;-69
2024/02/23 00:42:14;;;;;;;17.00;9.93;;;;;;;1.90;100.00;100683.91;5033721;28;20076;-70
2024/02/23 00:44:40;;;;;;;17.37;11.57;;;;;;;1.98;100.00;100696.47;5037046;28;20044;-68
2024/02/23 00:47:06;;;;;;;16.70;11.67;;;;;;;1.83;100.00;100667.75;5042250;28;20048;-66
2024/02/23 00:49:31;;;;;;;17.10;11.57;;;;;;;1.86;100.00;100671.94;5040118;28;20095;-68
2024/02/23 00:51:57;;;;;;;20.47;11.00;;;;;;;1.83;100.00;100659.03;5034261;28;20029;-69
2024/02/23 00:54:22;;;;;;;18.10;11.70;;;;;;;1.96;100.00;100686.09;5033991;28;20044;-69
2024/02/23 00:56:48;;;;;;;14.37;10.27;;;;;;;1.88;100.00;100667.41;5033759;28;20497;-69
2024/02/23 00:59:13;;;;;;;14.80;10.00;;;;;;;1.82;100.00;100665.22;5033863;28;20036;-69
2024/02/23 01:01:39;;;;;;;15.40;11.47;;;;;;;1.82;100.00;100659.97;5033417;28;20413;-70
2024/02/23 01:04:05;;;;;;;17.20;10.70;;;;;;;1.78;100.00;100656.75;5032446;28;20116;-69
2024/02/23 01:06:30;;;;;;;17.00;11.03;;;;;;;1.77;100.00;100654.22;5033942;28;20118;-69
2024/02/23 01:08:56;;;;;;;17.77;11.30;;;;;;;1.88;100.00;100679.72;5034309;28;20048;-69
2024/02/23 01:11:21;;;;;;;18.70;11.80;;;;;;;1.89;100.00;100673.50;5032481;28;20045;-69
2024/02/23 01:13:47;;;;;;;19.10;10.93;;;;;;;1.97;100.00;100677.25;5032268;28;20098;-69
2024/02/23 01:16:12;;;;;;;17.63;10.93;;;;;;;1.87;100.00;100671.00;5035071;28;20084;-70
2024/02/23 01:18:38;;;;;;;16.70;10.60;;;;;;;1.92;100.00;100674.13;5034860;28;20029;-69
2024/02/23 01:21:03;;;;;;;17.77;11.13;;;;;;;1.96;100.00;100680.84;5035228;28;20048;-66
2024/02/23 01:23:29;;;;;;;15.37;10.33;;;;;;;1.96;100.00;100682.63;5036103;28;20033;-67
2024/02/23 01:25:56;;;;;;;17.70;11.43;;;;;;;1.95;100.00;100684.41;5031936;28;20053;-71
2024/02/23 01:28:22;;;;;;;14.87;10.37;;;;;;;1.85;100.00;100672.88;5033021;28;20124;-71
2024/02/23 01:30:47;;;;;;;16.00;10.00;;;;;;;1.58;100.00;100627.59;5033129;28;20803;-71
2024/02/23 01:33:13;;;;;;;18.37;11.20;;;;;;;1.90;100.00;100683.06;5033373;28;20268;-71
2024/02/23 01:35:38;;;;;;;15.67;10.50;;;;;;;1.88;100.00;100677.91;5031722;28;20041;-72
2024/02/23 01:38:04;;;;;;;17.17;10.73;;;;;;;1.74;100.00;100643.94;5031616;28;20033;-70
2024/02/23 01:40:30;;;;;;;19.00;11.60;;;;;;;1.91;100.00;100677.69;5032899;28;20034;-69
2024/02/23 01:43:05;;;;;;;13.97;10.20;;;;;;;1.86;100.00;100669.31;5032923;28;20268;-67
2024/02/23 01:45:31;;;;;;;20.07;12.17;;;;;;;1.98;100.00;100681.56;5032873;28;20041;-70
2024/02/23 01:47:58;;;;;;;16.50;9.90;;;;;;;1.73;100.00;100634.34;5031664;28;20402;-68
2024/02/23 01:50:26;;;;;;;15.60;9.83;;;;;;;1.89;100.00;100663.84;5032863;28;20272;-70
2024/02/23 01:52:53;;;;;;;15.90;10.93;;;;;;;2.01;100.00;100673.47;5032831;28;20355;-68
2024/02/23 01:55:21;;;;;;;16.23;11.07;;;;;;;2.01;100.00;100683.13;5034239;28;20303;-70
2024/02/23 01:57:47;;;;;;;17.13;10.83;;;;;;;1.98;100.00;100678.09;5037015;28;20276;-68
2024/02/23 02:00:16;;;;;;;17.80;11.03;;;;;;;1.58;100.00;100617.09;5033861;28;20276;-69
2024/02/23 02:02:43;;;;;;;16.27;11.20;;;;;;;1.82;100.00;100657.34;5035257;28;20264;-70
2024/02/23 02:05:09;;;;;;;21.40;12.33;;;;;;;1.93;100.00;100670.56;5034694;28;20037;-70
2024/02/23 02:07:35;;;;;;;19.87;11.47;;;;;;;1.71;100.00;100633.63;5033333;28;20272;-71
2024/02/23 02:10:01;;;;;;;18.67;10.90;;;;;;;1.74;100.00;100641.31;5034510;28;20069;-72
2024/02/23 02:12:27;;;;;;;17.80;11.00;;;;;;;1.82;100.00;100654.72;5032082;28;20046;-68
2024/02/23 02:14:54;;;;;;;15.37;11.53;;;;;;;1.77;100.00;100648.97;5032555;28;20071;-67
2024/02/23 02:17:19;;;;;;;21.57;12.07;;;;;;;1.77;100.00;100627.97;5032443;28;20264;-68
2024/02/23 02:19:49;;;;;;;16.73;11.40;;;;;;;1.91;100.00;100640.94;5014701;28;20278;-71
2024/02/23 02:22:15;;;;;;;24.53;13.17;;;;;;;1.83;100.00;100627.53;5033087;28;20057;-69
2024/02/23 02:24:43;;;;;;;18.80;12.30;;;;;;;1.95;100.00;100642.38;5035910;28;20371;-69
2024/02/23 02:27:10;;;;;;;19.05;13.20;;;;;;;1.82;100.00;100631.09;5038397;28;20084;-71
2024/02/23 02:29:36;;;;;;;19.93;12.37;;;;;;;1.80;100.00;100636.47;5039770;28;20115;-69
2024/02/23 02:32:02;;;;;;;20.57;11.83;;;;;;;1.53;100.00;100607.75;5037924;28;20276;-68
2024/02/23 02:34:29;;;;;;;18.67;12.13;;;;;;;1.58;100.00;100620.56;5032609;28;20742;-72
2024/02/23 02:36:55;;;;;;;22.30;13.63;;;;;;;1.67;100.00;100633.00;5032266;28;20829;-67
2024/02/23 02:39:21;;;;;;;19.67;11.97;;;;;;;1.56;100.00;100606.69;5032144;28;20276;-72
2024/02/23 02:41:48;;;;;;;18.17;11.97;;;;;;;1.77;100.00;100639.31;5032275;28;20632;-72
2024/02/23 02:44:14;;;;;;;17.03;11.47;;;;;;;1.76;100.00;100636.78;5031980;28;20040;-69
2024/02/23 02:46:40;;;;;;;19.23;13.77;;;;;;;1.90;100.00;100649.75;5031909;28;20268;-72
2024/02/23 02:49:06;;;;;;;17.17;11.53;;;;;;;1.92;100.00;100647.88;5031783;28;20271;-70
2024/02/23 02:51:31;;;;;;;17.77;12.10;;;;;;;1.81;100.00;100630.25;5031409;28;20264;-68
2024/02/23 02:53:57;;;;;;;16.37;11.47;;;;;;;1.90;100.00;100652.38;5031765;28;20033;-68
2024/02/23 02:56:23;;;;;;;14.93;11.33;;;;;;;1.81;100.00;100635.50;5031653;28;20044;-69
2024/02/23 02:58:48;;;;;;;19.50;12.40;;;;;;;1.88;100.00;100646.41;5032079;28;20037;-68
2024/02/23 03:01:14;;;;;;;16.70;11.50;;;;;;;1.93;100.00;100654.78;5031344;28;20040;-71
2024/02/23 03:03:40;;;;;;;19.00;11.70;;;;;;;2.01;100.00;100656.88;5031589;28;20038;-69
2024/02/23 03:06:06;;;;;;;18.43;12.43;;;;;;;1.85;100.00;100641.38;5030487;28;20128;-72
2024/02/23 03:08:31;;;;;;;19.17;11.50;;;;;;;2.00;100.00;100656.03;5031780;28;20470;-71
2024/02/23 03:10:57;;;;;;;18.90;13.07;;;;;;;1.96;100.00;100651.09;5031514;28;20044;-69
2024/02/23 03:13:22;;;;;;;18.93;12.77;;;;;;;2.02;100.00;100662.00;5029766;28;20049;-68
2024/02/23 03:15:48;;;;;;;17.77;11.70;;;;;;;1.72;100.00;100614.31;5033490;28;20044;-68
2024/02/23 03:18:14;;;;;;;17.67;12.53;;;;;;;2.04;100.00;100668.00;5035606;28;20029;-69
2024/02/23 03:20:41;;;;;;;18.47;11.97;;;;;;;1.84;100.00;100634.44;5039836;28;20474;-67
2024/02/23 03:23:07;;;;;;;19.50;12.27;;;;;;;1.98;100.00;100650.03;5037371;28;20275;-67
2024/02/23 03:25:33;;;;;;;21.17;13.33;;;;;;;1.76;100.00;100611.38;5036076;28;20280;-69
2024/02/23 03:28:00;;;;;;;18.63;11.77;;;;;;;1.77;100.00;100627.97;5038697;28;20441;-67
2024/02/23 03:30:26;;;;;;;19.50;13.70;;;;;;;1.94;100.00;100651.22;5035263;28;20276;-70
2024/02/23 03:32:51;;;;;;;17.67;11.87;;;;;;;1.99;100.00;100658.75;5035283;28;20275;-71
2024/02/23 03:35:17;;;;;;;22.00;13.70;;;;;;;1.93;100.00;100648.69;5033964;28;20386;-70
2024/02/23 03:37:42;;;;;;;20.73;13.43;;;;;;;1.94;100.00;100640.72;5035388;28;20056;-71
2024/02/23 03:40:10;;;;;;;20.40;13.40;;;;;;;1.97;100.00;100643.13;5035116;28;20043;-69
2024/02/23 03:42:36;;;;;;;21.73;15.20;;;;;;;1.95;100.00;100641.56;5034906;28;20129;-70
2024/02/23 03:45:02;;;;;;;21.53;15.00;;;;;;;1.91;100.00;100635.69;5034645;28;20300;-69
2024/02/23 03:47:30;;;;;;;21.00;13.25;;;;;;;1.97;100.00;100643.13;5034736;28;20268;-69
2024/02/23 03:49:55;;;;;;;21.27;13.70;;;;;;;1.84;100.00;100609.03;5035493;28;20048;-68
2024/02/23 03:52:21;;;;;;;20.90;14.20;;;;;;;1.99;100.00;100635.13;5035019;28;20349;-70
2024/02/23 03:54:46;;;;;;;25.87;17.20;;;;;;;1.93;100.00;100618.03;5033561;28;20037;-72
2024/02/23 03:57:12;;;;;;;24.60;17.17;;;;;;;1.91;100.00;100617.28;5034643;28;20033;-70
2024/02/23 03:59:37;;;;;;;22.93;16.53;;;;;;;1.78;100.00;100608.63;5033560;28;20129;-72
2024/02/23 04:02:04;;;;;;;27.03;16.60;;;;;;;1.83;100.00;100620.47;5034622;28;20037;-68
2024/02/23 04:04:30;;;;;;;26.17;17.37;;;;;;;1.82;100.00;100617.97;5035407;28;20496;-69
2024/02/23 04:06:55;;;;;;;22.37;15.30;;;;;;;1.98;100.00;100638.69;5034631;28;20280;-68
2024/02/23 04:09:21;;;;;;;18.20;13.03;;;;;;;1.98;100.00;100646.56;5039505;28;20631;-71
2024/02/23 04:11:49;;;;;;;27.30;15.97;;;;;;;1.96;100.00;100633.56;5035189;28;20176;-69
2024/02/23 04:14:15;;;;;;;23.27;15.05;;;;;;;1.97;100.00;100637.88;5037070;28;20136;-68
2024/02/23 04:16:41;;;;;;;19.67;13.70;;;;;;;1.96;100.00;100633.56;5042434;28;20049;-68
2024/02/23 04:19:06;;;;;;;20.97;14.40;;;;;;;2.00;100.00;100640.25;5040140;28;20029;-70
2024/02/23 04:21:32;;;;;;;23.77;15.20;;;;;;;2.09;100.00;100637.00;5033636;28;20763;-68
2024/02/23 04:23:58;;;;;;;20.40;14.27;;;;;;;2.11;100.00;100635.09;5034642;28;20037;-70
2024/02/23 04:26:25;;;;;;;20.97;13.13;;;;;;;2.05;100.00;100627.66;5016155;28;20417;-68
2024/02/23 04:28:50;;;;;;;19.30;13.57;;;;;;;1.96;100.00;100615.16;5034190;28;20049;-71
2024/02/23 04:31:16;;;;;;;19.40;12.73;;;;;;;1.85;100.00;100599.38;5034116;28;20359;-70
2024/02/23 04:33:41;;;;;;;17.10;11.67;;;;;;;1.70;100.00;100567.16;5034311;28;20441;-70
2024/02/23 04:36:07;;;;;;;18.17;12.50;;;;;;;1.97;100.00;100616.84;5033180;28;20030;-69
2024/02/23 04:38:34;;;;;;;18.90;12.17;;;;;;;1.78;100.00;100577.13;5034378;28;20810;-68
2024/02/23 04:41:02;;;;;;;18.20;12.03;;;;;;;1.91;100.00;100606.78;5033909;28;20029;-69
2024/02/23 04:43:28;;;;;;;20.27;13.60;;;;;;;1.88;100.00;100604.38;5033948;28;20272;-69
2024/02/23 04:45:54;;;;;;;19.67;14.07;;;;;;;1.85;100.00;100596.75;5034055;28;20390;-69
2024/02/23 04:48:19;;;;;;;18.87;12.37;;;;;;;1.81;100.00;100587.41;5034044;28;20039;-69
2024/02/23 04:50:45;;;;;;;18.47;13.03;;;;;;;1.94;100.00;100617.06;5033931;28;20036;-67
2024/02/23 04:53:10;;;;;;;21.40;12.90;;;;;;;1.84;100.00;100593.28;5033671;28;20033;-68
2024/02/23 04:55:38;;;;;;;18.47;12.80;;;;;;;1.76;100.00;100592.16;5033739;28;20036;-71
2024/02/23 04:58:04;;;;;;;19.30;12.03;;;;;;;1.92;100.00;100611.09;5032811;28;20120;-68
2024/02/23 05:00:33;;;;;;;18.37;13.00;;;;;;;1.75;100.00;100587.84;5033538;28;20264;-69
2024/02/23 05:03:02;;;;;;;16.97;12.30;;;;;;;1.87;100.00;100615.84;5034272;28;20041;-69
2024/02/23 05:05:28;;;;;;;18.20;12.50;;;;;;;1.89;100.00;100606.06;5033798;28;20657;-68
2024/02/23 05:07:54;;;;;;;18.43;12.20;;;;;;;1.85;100.00;100592.31;5033676;28;20815;-69
2024/02/23 05:10:20;;;;;;;14.50;11.77;;;;;;;1.86;100.00;100580.88;5033531;28;20358;-70
2024/02/23 05:12:45;;;;;;;16.50;11.17;;;;;;;2.00;100.00;100603.50;5033206;28;20129;-69
2024/02/23 05:15:11;;;;;;;15.70;11.70;;;;;;;1.13;100.00;100454.94;5036975;28;20057;-71
2024/02/23 05:17:36;;;;;;;14.67;11.53;;;;;;;1.81;100.00;100561.16;5039389;28;20038;-69
2024/02/23 05:20:07;;;;;;;14.43;10.77;;;;;;;1.85;100.00;100568.69;5037473;28;20116;-69
2024/02/23 05:22:33;;;;;;;16.07;11.33;;;;;;;1.81;100.00;100569.88;5035690;28;20045;-68
2024/02/23 05:25:05;;;;;;;16.57;11.33;;;;;;;2.01;100.00;100599.91;5031897;28;20625;-70
2024/02/23 05:27:32;;;;;;;14.67;11.30;;;;;;;1.65;100.00;100544.81;5031969;28;20056;-69
2024/02/23 05:29:58;;;;;;;15.77;10.77;;;;;;;1.86;100.00;100588.75;5033168;28;20288;-70
2024/02/23 05:32:24;;;;;;;15.27;10.80;;;;;;;1.95;100.00;100610.88;5032978;28;20330;-71
2024/02/23 05:34:52;;;;;;;15.60;10.13;;;;;;;1.96;100.00;100611.72;5033368;28;20041;-70
2024/02/23 05:37:18;;;;;;;18.75;10.93;;;;;;;1.91;100.00;100590.19;5032475;28;20728;-69
2024/02/23 05:39:45;;;;;;;16.60;9.90;;;;;;;1.38;100.00;100505.66;5031787;28;20499;-69
2024/02/23 05:42:14;;;;;;;12.23;9.80;;;;;;;2.02;100.00;100593.72;5032224;28;20636;-69
2024/02/23 05:44:43;;;;;;;14.25;9.05;;;;;;;2.06;100.00;100600.44;5032318;28;20318;-69
2024/02/23 05:47:09;;;;;;;15.32;10.90;;;;;;;1.89;100.00;100564.06;5032309;28;20053;-69
2024/02/23 05:49:35;;;;;;;14.23;9.27;;;;;;;2.03;100.00;100592.78;5032057;28;20037;-69
2024/02/23 05:52:01;;;;;;;13.10;9.43;;;;;;;1.95;100.00;100589.03;5037492;28;20308;-69
2024/02/23 05:54:26;;;;;;;15.90;10.57;;;;;;;1.75;100.00;100530.09;5036949;28;20029;-68
2024/02/23 05:56:55;;;;;;;14.60;9.80;;;;;;;1.95;100.00;100574.09;5031429;28;20036;-70
2024/02/23 05:59:21;;;;;;;;;;;;;;;2.09;100.00;100592.34;5034592;28;20575;-69
2024/02/23 06:01:48;;;;;;;13.07;9.73;;;;;;;1.91;100.00;100577.91;5030976;28;20452;-71
2024/02/23 06:04:14;;;;;;;14.90;9.20;;;;;;;1.81;100.00;100556.75;5029011;28;20275;-70
2024/02/23 06:06:43;;;;;;;15.30;11.10;;;;;;;1.60;100.00;100510.19;5014337;28;20041;-73
2024/02/23 06:09:09;;;;;;;14.57;10.13;;;;;;;2.01;100.00;100575.44;5030857;28;20037;-75
2024/02/23 06:11:35;;;;;;;14.23;9.77;;;;;;;1.80;100.00;100548.97;5030272;28;20275;-76
2024/02/23 06:14:00;;;;;;;13.83;9.90;;;;;;;2.06;100.00;100576.81;5020324;28;20296;-72
2024/02/23 06:16:26;;;;;;;14.97;10.33;;;;;;;2.10;100.00;100574.78;5011923;28;20037;-70
2024/02/23 06:18:52;;;;;;;13.37;8.87;;;;;;;2.08;100.00;100574.91;5012566;28;20037;-72
2024/02/23 06:21:18;;;;;;;13.97;9.57;;;;;;;2.18;100.00;100588.19;5012716;28;20474;-72
2024/02/23 06:23:44;;;;;;;13.47;9.17;;;;;;;2.22;100.00;100586.16;5013915;28;20033;-72
2024/02/23 06:26:12;;;;;;;12.67;9.17;;;;;;;2.23;100.00;100587.84;5010509;28;20104;-69
2024/02/23 06:28:41;;;;;;;12.45;8.95;;;;;;;2.23;100.00;100578.16;5010888;28;20383;-71
2024/02/23 06:31:07;;;;;;;13.85;10.20;;;;;;;2.24;100.00;100589.50;5012159;28;20454;-72
2024/02/23 06:33:33;;;;;;;14.07;9.03;;;;;;;2.24;100.00;100579.00;5012681;28;20048;-71
2024/02/23 06:35:59;;;;;;;15.27;9.03;;;;;;;2.32;100.00;100595.06;5030545;28;20628;-69
2024/02/23 06:38:24;;;;;;;14.63;9.90;;;;;;;2.29;100.00;100595.25;5036581;28;20511;-71
2024/02/23 06:40:51;;;;;;;12.47;9.73;;;;;;;2.28;100.00;100572.56;5038351;28;20075;-70
2024/02/23 06:43:16;;;;;;;12.10;9.27;;;;;;;2.31;100.00;100574.97;5039981;28;20037;-72
2024/02/23 06:45:42;;;;;;;12.70;8.23;;;;;;;2.32;100.00;100576.66;5039154;28;20690;-70
2024/02/23 06:48:08;;;;;;;11.50;8.57;;;;;;;2.38;100.00;100597.22;5035790;28;20061;-71
2024/02/23 06:50:34;;;;;;;15.97;8.13;;;;;;;2.38;100.00;100578.84;5040157;28;20092;-67
2024/02/23 06:53:00;;;;;;;11.27;8.10;;;;;;;2.14;100.00;100563.09;5046202;28;20029;-71
2024/02/23 06:55:26;;;;;;;16.53;9.70;;;;;;;2.00;100.00;100534.38;5042433;28;20300;-71
2024/02/23 06:57:51;;;;;;;17.30;10.77;;;;;;;2.33;100.00;100587.06;5045226;28;20044;-70
2024/02/23 07:00:17;;;;;;;11.27;8.57;;;;;;;2.39;100.00;100588.38;5025190;28;20451;-70
2024/02/23 07:02:42;;;;;;;11.13;7.13;;;;;;;2.13;100.00;100540.41;5041305;28;20091;-72
2024/02/23 07:05:08;;;;;;;11.83;7.70;;;;;;;2.21;100.00;100548.53;5042380;28;20093;-71
2024/02/23 07:07:34;;;;;;;9.80;7.90;;;;;;;2.41;100.00;100575.97;5040804;28;20064;-70
2024/02/23 07:10:00;;;;;;;11.83;8.73;;;;;;;2.22;100.00;100552.00;5043222;28;20086;-77
2024/02/23 07:12:29;;;;;;;14.37;9.47;;;;;;;2.40;100.00;100584.81;5032684;28;20776;-73
2024/02/23 07:14:56;;;;;;;10.88;7.93;;;;;;;2.12;100.00;100529.06;5033648;28;20091;-72
2024/02/23 07:17:22;;;;;;;14.13;9.03;;;;;;;2.45;100.00;100588.75;5033698;28;20046;-74
2024/02/23 07:19:48;;;;;;;11.77;8.00;;;;;;;2.27;100.00;100558.59;5033268;28;20286;-76
2024/02/23 07:22:13;;;;;;;12.40;8.33;;;;;;;2.46;100.00;100590.44;5031415;28;20042;-77
2024/02/23 07:24:42;;;;;;;11.70;8.43;;;;;;;2.41;100.00;100586.47;5032221;28;20408;-71
2024/02/23 07:27:08;;;;;;;15.30;10.07;;;;;;;2.18;100.00;100546.97;5031324;28;20068;-71
2024/02/23 07:29:34;;;;;;;17.83;9.20;;;;;;;2.35;100.00;100579.06;5032606;28;20651;-71
2024/02/23 07:32:00;;;;;;;14.20;9.03;;;;;;;2.40;100.00;100583.00;5033644;28;20501;-70
2024/02/23 07:34:29;;;;;;;10.70;7.30;;;;;;;2.47;100.00;100586.00;5037969;28;20036;-71
2024/02/23 07:36:54;;;;;;;14.73;8.60;;;;;;;2.37;100.00;100574.53;5050942;28;20044;-71
2024/02/23 07:39:21;;;;;;;12.53;8.00;;;;;;;2.37;100.00;100575.38;5044928;28;20275;-68
2024/02/23 07:41:47;;;;;;;12.90;8.23;;;;;;;2.52;100.00;100597.03;5045816;28;20047;-67
2024/02/23 07:44:12;;;;;;;14.63;8.37;;;;;;;2.51;100.00;100597.97;5036051;28;20351;-69
2024/02/23 07:46:38;;;;;;;13.93;8.10;;;;;;;2.45;100.00;100573.00;5045056;28;20718;-69
2024/02/23 07:49:05;;;;;;;11.73;7.43;;;;;;;2.57;100.00;100589.63;5042083;28;20064;-71
2024/02/23 07:51:31;;;;;;;12.13;8.20;;;;;;;2.65;100.00;100591.69;5041311;28;20037;-69
2024/02/23 07:53:57;;;;;;;14.27;9.43;;;;;;;2.54;100.00;100584.59;5034050;28;20291;-72
2024/02/23 07:56:23;;;;;;;15.90;10.17;;;;;;;2.61;100.00;100592.88;5039669;28;20041;-70
2024/02/23 07:58:48;;;;;;;13.17;7.87;;;;;;;2.66;100.00;100599.47;5042869;28;20504;-73
2024/02/23 08:01:14;;;;;;;11.50;8.60;;;;;;;2.73;100.00;100608.56;5043596;28;20554;-71
2024/02/23 08:03:40;;;;;;;16.03;9.10;;;;;;;2.51;100.00;100550.66;5038595;28;20040;-69
2024/02/23 08:06:06;;;;;;;13.60;9.50;;;;;;;2.69;100.00;100549.28;5043102;28;20071;-71
2024/02/23 08:08:34;;;;;;;10.60;7.83;;;;;;;2.94;100.00;100576.31;5052880;28;20318;-68
2024/02/23 08:11:03;;;;;;;11.07;7.90;;;;;;;3.02;100.00;100581.81;5048688;28;20036;-71
2024/02/23 08:13:29;;;;;;;12.77;8.63;;;;;;;2.90;100.00;100545.97;5041837;28;20038;-71
2024/02/23 08:15:55;;;;;;;12.57;8.20;;;;;;;3.19;100.00;100594.53;5049334;28;20280;-73
2024/02/23 08:18:22;;;;;;;12.97;9.23;;;;;;;3.16;100.00;100581.56;5036626;28;20045;-72
2024/02/23 08:20:48;;;;;;;10.10;7.57;;;;;;;3.25;100.00;100591.41;5042048;28;20033;-75
2024/02/23 08:23:14;;;;;;;14.37;9.50;;;;;;;3.26;100.00;100595.72;5053197;28;20293;-71
2024/02/23 08:25:40;;;;;;;14.17;8.67;;;;;;;3.15;100.00;100566.75;5042014;28;20296;-75
2024/02/23 08:28:07;;;;;;;13.97;9.13;;;;;;;3.28;100.00;100596.44;5048518;28;20037;-71
2024/02/23 08:30:33;;;;;;;11.67;8.30;;;;;;;3.05;100.00;100566.63;5049231;28;20322;-74
2024/02/23 08:32:59;;;;;;;11.83;8.23;;;;;;;3.24;100.00;100602.06;5036936;28;20280;-70
2024/02/23 08:35:25;;;;;;;10.80;7.87;;;;;;;3.02;100.00;100563.41;5054588;28;20806;-70
2024/02/23 08:37:51;;;;;;;11.77;8.83;;;;;;;3.13;100.00;100583.59;5043067;28;20324;-71
2024/02/23 08:40:16;;;;;;;10.40;8.40;;;;;;;3.11;100.00;100604.78;5043914;28;20034;-71
2024/02/23 08:42:42;;;;;;;13.43;8.50;;;;;;;3.08;100.00;100597.97;5040496;28;20118;-69
2024/02/23 08:45:09;;;;;;;13.30;8.70;;;;;;;3.06;100.00;100588.50;5036814;28;20041;-70
2024/02/23 08:47:35;;;;;;;10.87;7.87;;;;;;;3.04;100.00;100582.53;5037977;28;20493;-73
2024/02/23 08:50:02;;;;;;;10.30;7.93;;;;;;;3.06;100.00;100586.72;5041342;28;20272;-73
2024/02/23 08:52:30;;;;;;;13.23;9.27;;;;;;;3.18;100.00;100603.38;5046294;28;20090;-71
2024/02/23 08:54:56;;;;;;;10.30;7.60;;;;;;;3.18;100.00;100603.38;5040176;28;20780;-71
2024/02/23 08:57:24;;;;;;;12.10;8.37;;;;;;;3.18;100.00;100599.88;5037459;28;20048;-73
2024/02/23 08:59:50;;;;;;;10.85;7.88;;;;;;;3.06;100.00;100586.72;5036374;28;20512;-72
2024/02/23 09:02:15;;;;;;;15.07;9.10;;;;;;;2.97;100.00;100583.97;5034528;28;20041;-70
2024/02/23 09:04:41;;;;;;;14.97;8.30;;;;;;;3.19;100.00;100609.47;5039645;28;20523;-69
2024/02/23 09:07:07;;;;;;;12.57;7.90;;;;;;;2.91;100.00;100560.78;5049193;28;20040;-70
2024/02/23 09:09:32;;;;;;;13.53;8.73;;;;;;;3.01;100.00;100559.09;5048522;28;20040;-70
2024/02/23 09:11:58;;;;;;;14.33;8.40;;;;;;;3.05;100.00;100578.94;5051804;28;20043;-73
2024/02/23 09:14:25;;;;;;;11.20;9.20;;;;;;;3.06;100.00;100575.34;5031121;28;20095;-72
2024/02/23 09:16:52;;;;;;;14.27;9.10;;;;;;;3.00;100.00;100565.31;5052627;28;20044;-72
2024/02/23 09:19:18;;;;;;;11.27;7.37;;;;;;;2.98;100.00;100565.44;5039903;28;20288;-72
2024/02/23 09:21:45;;;;;;;12.37;8.67;;;;;;;3.18;100.00;100603.38;5048865;28;20295;-71
2024/02/23 09:24:10;;;;;;;12.93;7.87;;;;;;;3.07;100.00;100575.25;5041802;28;20370;-73
2024/02/23 09:26:37;;;;;;;11.93;7.57;;;;;;;3.26;100.00;100600.97;5049112;28;20395;-70
2024/02/23 09:29:03;;;;;;;14.47;8.97;;;;;;;3.26;100.00;100600.97;5042035;28;20098;-72
2024/02/23 09:31:29;;;;;;;12.87;8.87;;;;;;;3.27;100.00;100604.44;5049407;28;20290;-74
2024/02/23 09:33:56;;;;;;;17.33;8.90;;;;;;;3.30;100.00;100606.84;5043698;28;20048;-71
2024/02/23 09:36:21;;;;;;;13.50;8.27;;;;;;;3.19;100.00;100588.41;5042349;28;20492;-71
2024/02/23 09:38:48;;;;;;;11.90;7.93;;;;;;;3.33;100.00;100599.53;5035045;28;20326;-71
2024/02/23 09:41:23;;;;;;;14.90;8.93;;;;;;;3.24;100.00;100571.31;5038755;28;20521;-71
2024/02/23 09:43:49;;;;;;;11.33;8.50;;;;;;;3.29;100.00;100584.94;5038727;28;20356;-73
2024/02/23 09:46:18;;;;;;;11.60;8.53;;;;;;;3.47;100.00;100609.00;5037638;28;20474;-71
2024/02/23 09:48:44;;;;;;;;;;;;;;;3.56;100.00;100608.25;5045583;28;20280;-71
2024/02/23 09:51:15;;;;;;;14.77;9.43;;;;;;;3.48;100.00;100584.34;5037918;28;19931;-71
2024/02/23 09:53:42;;;;;;;15.03;8.80;;;;;;;3.41;100.00;100583.97;5047411;28;20041;-72
2024/02/23 09:56:11;;;;;;;14.17;9.23;;;;;;;3.40;100.00;100582.28;5045662;28;20276;-73
2024/02/23 09:58:37;;;;;;;17.77;9.05;;;;;;;3.25;100.00;100551.94;5043708;28;20354;-70
2024/02/23 10:01:03;;;;;;;12.90;9.20;;;;;;;3.49;100.00;100585.19;5036454;28;20041;-71
2024/02/23 10:03:33;;;;;;;12.87;8.50;;;;;;;3.22;100.00;100531.13;5049980;28;20274;-70
2024/02/23 10:06:02;;;;;;;20.17;9.83;;;;;;;3.58;100.00;100587.06;5038409;28;20314;-72
2024/02/23 10:08:30;;;;;;;10.83;8.43;;;;;;;3.64;100.00;100573.41;5046996;28;20267;-73
2024/02/23 10:10:56;;;;;;;15.25;9.05;;;;;;;3.67;100.00;100573.16;5046658;28;20489;-71
2024/02/23 10:13:26;;;;;;;14.10;8.83;;;;;;;3.63;100.00;100566.47;5048818;28;20037;-71
2024/02/23 10:15:52;;;;;;;13.70;9.93;;;;;;;3.62;100.00;100567.44;5045921;28;20132;-74
2024/02/23 10:18:19;;;;;;;16.27;9.70;;;;;;;3.66;100.00;100576.75;5040305;28;20287;-72
2024/02/23 10:20:46;;;;;;;14.80;9.23;;;;;;;3.66;100.00;100576.75;5043065;28;20299;-71
2024/02/23 10:23:11;;;;;;;16.23;9.93;;;;;;;3.30;100.00;100505.03;5039820;28;20500;-72
2024/02/23 10:25:37;;;;;;;10.83;8.17;;;;;;;3.59;100.00;100559.78;5040257;28;20452;-71
2024/02/23 10:28:06;;;;;;;11.93;8.17;;;;;;;3.68;100.00;100575.66;5040900;28;20079;-74
2024/02/23 10:30:33;;;;;;;11.87;8.50;;;;;;;3.62;100.00;100549.00;5032612;28;20045;-73
2024/02/23 10:32:59;;;;;;;10.77;9.00;;;;;;;3.72;100.00;100569.19;5030994;28;20823;-70
2024/02/23 10:35:26;;;;;;;13.43;8.53;;;;;;;3.84;100.00;100580.56;5039227;28;20304;-71
2024/02/23 10:37:53;;;;;;;11.67;8.00;;;;;;;3.86;100.00;100567.25;5051380;28;20789;-72
2024/02/23 10:40:21;;;;;;;13.93;9.33;;;;;;;3.82;100.00;100571.94;5052055;28;20263;-72
2024/02/23 10:42:47;;;;;;;12.73;9.50;;;;;;;3.48;100.00;100510.63;5052150;28;20678;-73
2024/02/23 10:45:18;;;;;;;15.70;10.97;;;;;;;3.65;100.00;100532.94;5050807;28;20282;-72
2024/02/23 10:47:44;;;;;;;10.00;7.70;;;;;;;3.71;100.00;100548.25;5051688;28;20758;-71
2024/02/23 10:50:14;;;;;;;13.50;9.00;;;;;;;3.41;100.00;100497.09;5034689;28;20317;-71
2024/02/23 10:52:42;;;;;;;11.40;8.57;;;;;;;3.65;100.00;100544.31;5051996;28;20492;-70
2024/02/23 10:55:10;;;;;;;10.52;8.27;;;;;;;3.61;100.00;100549.94;5052293;28;20337;-76
2024/02/23 10:57:37;;;;;;;10.10;8.77;;;;;;;3.61;100.00;100557.84;5052155;28;20504;-69
2024/02/23 11:00:09;;;;;;;13.80;8.63;;;;;;;3.47;100.00;100529.16;5051612;28;20044;-72
2024/02/23 11:02:55;;;;;;;12.37;9.00;;;;;;;3.47;100.00;100542.31;5050615;28;20283;-70
2024/02/23 11:05:22;;;;;;;11.83;8.43;;;;;;;3.60;100.00;100556.19;5051807;28;20275;-70
2024/02/23 11:07:51;;;;;;;11.97;8.83;;;;;;;3.50;100.00;100556.09;5050321;28;20271;-74
2024/02/23 11:10:17;;;;;;;;;;;;;;;3.67;100.00;100567.88;5051943;28;20278;-72